Time;durP1;ratioP1;P1;durP2;ratioP2;P2;SDS_P1;SDS_P2;PMS_P1;PMS_P2;Temp;Humidity;BMP_temperature;BMP_pressure;BME280_temperature;BME280_humidity;BME280_pressure;Samples;Min_cycle;Max_cycle;Signal;HPM_P1;HPM_P2
2022/06/02 00:00:24;;;;;;;9.43;6.18;;;;;;;16.03;80.25;92855.44;2052014;70;20153;-71
2022/06/02 00:03:24;;;;;;;9.25;5.20;;;;;;;15.79;80.97;92860.81;2051715;70;20149;-73
2022/06/02 00:06:08;;;;;;;7.07;5.35;;;;;;;16.21;78.40;92886.75;2051955;70;20153;-73
2022/06/02 00:08:53;;;;;;;7.13;5.47;;;;;;;15.90;80.39;92879.75;2051917;70;20165;-73
2022/06/02 00:11:19;;;;;;;7.07;5.50;;;;;;;16.55;76.58;92876.13;2051905;70;20144;-73
2022/06/02 00:13:58;;;;;;;5.50;4.70;;;;;;;16.86;71.96;92883.06;2065006;69;20142;-73
2022/06/02 00:16:37;;;;;;;6.57;5.00;;;;;;;16.65;74.99;92912.75;2052070;70;20150;-71
2022/06/02 00:19:09;;;;;;;7.35;5.38;;;;;;;15.90;79.69;92930.84;2051977;70;20166;-73
2022/06/02 00:21:55;;;;;;;;;;;;;;;15.46;80.92;92938.75;2052204;70;20151;-71
2022/06/02 00:24:28;;;;;;;8.63;5.03;;;;;;;16.27;76.67;92904.06;2052018;70;20046;-71
2022/06/02 00:27:09;;;;;;;7.57;4.70;;;;;;;16.59;74.15;92899.03;2052051;70;20158;-72
2022/06/02 00:29:34;;;;;;;5.15;4.32;;;;;;;16.59;75.06;92903.97;2051964;70;20165;-72
2022/06/02 00:32:06;;;;;;;5.72;4.30;;;;;;;16.51;76.24;92904.34;2052169;70;20134;-72
2022/06/02 00:34:44;;;;;;;5.63;4.63;;;;;;;16.52;75.74;92898.03;2052069;70;20212;-72
2022/06/02 00:37:15;;;;;;;5.72;4.28;;;;;;;16.58;75.51;92891.13;2052223;70;20153;-72
2022/06/02 00:39:41;;;;;;;5.25;3.95;;;;;;;16.67;74.61;92884.41;2051874;70;20150;-72
2022/06/02 00:42:28;;;;;;;4.07;3.67;;;;;;;16.67;74.49;92899.34;2052123;70;20219;-72
2022/06/02 00:45:04;;;;;;;5.35;4.50;;;;;;;15.50;80.66;92902.06;2065034;69;20249;-72
2022/06/02 00:47:41;;;;;;;5.53;4.20;;;;;;;16.15;77.00;92906.38;2051779;70;20154;-72
2022/06/02 00:50:19;;;;;;;5.38;4.28;;;;;;;16.33;75.12;92895.78;2051946;69;20248;-72
2022/06/02 00:52:54;;;;;;;4.50;4.10;;;;;;;16.53;73.88;92893.78;2051843;70;20139;-72
2022/06/02 00:58:55;;;;;;;5.57;4.47;;;;;;;16.59;74.59;92884.09;2051871;70;20166;-71
2022/06/02 01:01:31;;;;;;;5.30;4.40;;;;;;;16.35;75.56;92895.88;2064724;69;20157;-71
2022/06/02 01:03:59;;;;;;;4.88;4.30;;;;;;;16.29;75.68;92900.56;2051821;70;20204;-71
2022/06/02 01:06:44;;;;;;;5.72;4.30;;;;;;;16.32;75.52;92894.34;2051749;70;20229;-72
2022/06/02 01:09:25;;;;;;;4.85;4.30;;;;;;;16.18;75.31;92905.09;2046562;70;20604;-72
2022/06/02 01:12:12;;;;;;;4.97;4.47;;;;;;;16.09;75.82;92889.81;2051873;70;20165;-71
2022/06/02 01:14:51;;;;;;;5.43;4.70;;;;;;;16.46;74.62;92886.41;2051715;70;20158;-72
2022/06/02 01:17:38;;;;;;;5.80;4.28;;;;;;;16.56;74.19;92888.22;2064694;69;20642;-72
2022/06/02 01:20:32;;;;;;;6.43;4.65;;;;;;;16.58;72.79;92894.69;2051111;70;20139;-72
2022/06/02 01:23:29;;;;;;;6.28;4.22;;;;;;;16.74;71.42;92889.00;2051999;70;20139;-72
2022/06/02 01:26:22;;;;;;;6.55;5.00;;;;;;;16.33;75.37;92884.44;2052002;70;20151;-72
2022/06/02 01:29:19;;;;;;;5.57;4.60;;;;;;;16.51;73.11;92890.88;2051752;70;20147;-72
2022/06/02 01:31:59;;;;;;;6.25;4.93;;;;;;;16.72;70.07;92889.66;2064726;69;20196;-72
2022/06/02 01:35:00;;;;;;;7.65;4.82;;;;;;;16.51;72.68;92890.88;2051977;70;20143;-72
2022/06/02 01:37:25;;;;;;;6.88;4.90;;;;;;;16.41;73.27;92892.56;2047729;70;20661;-71
2022/06/02 01:40:06;;;;;;;5.13;4.53;;;;;;;16.52;70.96;92872.44;2052036;70;20229;-71
2022/06/02 01:42:50;;;;;;;7.40;5.00;;;;;;;16.56;71.76;92859.78;2051810;70;20138;-72
2022/06/02 01:45:28;;;;;;;7.38;5.45;;;;;;;16.47;73.24;92862.28;2064853;69;20203;-72
2022/06/02 01:48:15;;;;;;;7.60;5.70;;;;;;;16.38;73.62;92865.44;2064672;69;20207;-72
2022/06/02 01:51:09;;;;;;;7.07;5.35;;;;;;;16.44;73.91;92848.63;2051683;70;20225;-72
2022/06/02 01:54:09;;;;;;;5.95;5.30;;;;;;;16.24;74.81;92849.25;2064605;69;20145;-72
2022/06/02 01:57:10;;;;;;;7.32;5.57;;;;;;;16.14;74.39;92868.72;2051361;70;20288;-72
2022/06/02 01:59:38;;;;;;;7.78;5.75;;;;;;;16.30;74.94;92871.50;2064270;69;20238;-72
2022/06/02 02:02:23;;;;;;;6.97;5.70;;;;;;;16.31;75.56;92883.59;2064639;69;20600;-72
2022/06/02 02:05:07;;;;;;;5.97;5.43;;;;;;;16.34;73.49;92888.00;2051611;70;20166;-72
2022/06/02 02:07:54;;;;;;;6.20;5.60;;;;;;;16.46;73.01;92894.94;2051745;70;20139;-72
2022/06/02 02:10:38;;;;;;;7.63;6.13;;;;;;;16.45;72.54;92899.16;2051783;70;20230;-72
2022/06/02 02:13:13;;;;;;;8.55;6.40;;;;;;;16.38;74.54;92893.84;2051911;70;20153;-71
2022/06/02 02:16:12;;;;;;;6.72;5.57;;;;;;;16.42;73.83;92894.03;2064707;69;20150;-72
2022/06/02 02:19:08;;;;;;;6.50;5.80;;;;;;;16.46;73.09;92877.88;2051833;70;20142;-72
2022/06/02 02:21:40;;;;;;;9.43;5.70;;;;;;;16.42;73.84;92889.06;2051728;70;20199;-72
2022/06/02 02:24:48;;;;;;;8.73;6.90;;;;;;;15.92;77.41;92874.16;2064806;69;20142;-71
2022/06/02 02:27:25;;;;;;;8.40;6.68;;;;;;;15.84;77.89;92878.75;2051424;70;20147;-72
2022/06/02 02:30:00;;;;;;;8.88;6.63;;;;;;;15.72;79.15;92865.50;2051570;70;20150;-71
2022/06/02 02:32:56;;;;;;;9.00;6.45;;;;;;;16.00;77.04;92862.44;2051565;70;20131;-72
2022/06/02 02:35:50;;;;;;;8.93;5.95;;;;;;;16.24;75.59;92863.47;2051765;70;20602;-71
2022/06/02 02:38:33;;;;;;;8.60;6.25;;;;;;;16.11;75.37;92857.91;2064749;69;20149;-72
2022/06/02 02:41:03;;;;;;;5.97;5.38;;;;;;;16.25;74.61;92862.09;2051282;70;20159;-72
2022/06/02 02:43:41;;;;;;;6.35;5.75;;;;;;;16.28;73.33;92862.91;2064662;69;20150;-72
2022/06/02 02:46:22;;;;;;;9.57;6.18;;;;;;;16.30;74.35;92863.00;2051360;70;20213;-72
2022/06/02 02:48:51;;;;;;;9.55;6.35;;;;;;;16.20;73.14;92876.75;2051748;70;20693;-72
2022/06/02 02:51:23;;;;;;;8.70;6.07;;;;;;;16.37;72.49;92887.44;2051590;70;20638;-72
2022/06/02 02:53:56;;;;;;;7.38;5.90;;;;;;;15.92;75.17;92877.00;2061863;69;20515;-72
2022/06/02 02:56:30;;;;;;;7.07;6.10;;;;;;;15.66;76.53;92879.38;2052100;70;20174;-72
2022/06/02 02:59:06;;;;;;;7.10;6.38;;;;;;;15.93;75.69;92884.13;2052052;70;20180;-72
2022/06/02 03:01:53;;;;;;;8.18;5.97;;;;;;;15.94;75.58;92873.50;2052027;70;20636;-73
2022/06/02 03:04:19;;;;;;;8.25;6.50;;;;;;;16.07;74.41;92881.19;2051891;70;20573;-72
2022/06/02 03:06:47;;;;;;;7.82;6.78;;;;;;;16.10;75.29;92882.75;2051658;70;20155;-73
2022/06/02 03:09:27;;;;;;;7.55;6.47;;;;;;;16.20;74.25;92880.34;2062309;69;20150;-72
2022/06/02 03:11:53;;;;;;;9.70;6.80;;;;;;;16.23;74.69;92879.06;2052354;70;20154;-73
2022/06/02 03:14:39;;;;;;;9.75;8.75;;;;;;;15.73;77.86;92880.41;2065319;69;20177;-74
2022/06/02 03:17:43;;;;;;;10.18;7.53;;;;;;;16.17;74.92;92880.88;2065299;69;20160;-74
2022/06/02 03:20:30;;;;;;;12.15;8.60;;;;;;;15.85;75.82;92883.03;2052186;70;20207;-73
2022/06/02 03:23:20;;;;;;;8.80;6.80;;;;;;;15.94;74.13;92891.28;2052227;70;20199;-73
2022/06/02 03:26:19;;;;;;;8.68;7.15;;;;;;;15.94;75.79;92905.50;2052140;70;20127;-73
2022/06/02 03:29:22;;;;;;;9.75;7.15;;;;;;;16.05;75.06;92905.94;2052923;69;20519;-74
2022/06/02 03:32:04;;;;;;;10.15;8.30;;;;;;;16.04;75.53;92910.16;2065164;69;20325;-73
2022/06/02 03:34:59;;;;;;;9.25;7.20;;;;;;;16.16;71.70;92897.19;2052258;70;20588;-73
2022/06/02 03:37:27;;;;;;;12.30;8.40;;;;;;;15.99;75.71;92886.53;2052315;70;20220;-73
2022/06/02 03:40:35;;;;;;;9.68;7.60;;;;;;;16.10;75.26;92899.06;2065302;69;20200;-73
2022/06/02 03:43:15;;;;;;;11.63;7.90;;;;;;;16.13;73.99;92889.25;2052475;69;20643;-73
2022/06/02 03:45:50;;;;;;;12.27;8.27;;;;;;;16.02;73.71;92885.94;2051797;69;20130;-73
2022/06/02 03:48:20;;;;;;;9.60;7.80;;;;;;;16.16;73.03;92876.59;2052222;70;20169;-73
2022/06/02 03:51:21;;;;;;;9.90;8.13;;;;;;;16.14;75.00;92879.34;2065348;69;20145;-73
2022/06/02 03:54:24;;;;;;;9.38;7.55;;;;;;;16.14;74.91;92887.88;2052275;70;20131;-74
2022/06/02 03:57:14;;;;;;;11.45;7.47;;;;;;;16.10;75.65;92885.59;2052198;70;20169;-73
2022/06/02 04:00:03;;;;;;;9.93;8.63;;;;;;;15.77;77.01;92900.47;2065125;69;20150;-75
2022/06/02 04:02:48;;;;;;;9.13;8.00;;;;;;;16.10;75.19;92899.78;2050723;69;20531;-73
2022/06/02 04:05:29;;;;;;;8.43;7.25;;;;;;;16.18;75.28;92905.09;2052248;70;20153;-73
2022/06/02 04:08:15;;;;;;;10.48;8.40;;;;;;;16.19;74.85;92912.97;2052359;70;20159;-73
2022/06/02 04:10:59;;;;;;;10.95;8.88;;;;;;;16.09;75.32;92904.00;2053118;69;20138;-73
2022/06/02 04:13:47;;;;;;;12.85;8.93;;;;;;;16.08;75.46;92901.78;2052262;70;20210;-74
2022/06/02 04:16:15;;;;;;;10.43;8.65;;;;;;;16.18;71.87;92913.63;2062382;69;20528;-74
2022/06/02 04:18:47;;;;;;;11.60;8.40;;;;;;;15.56;79.54;92912.22;2065068;69;20142;-74
2022/06/02 04:22:08;;;;;;;8.48;7.65;;;;;;;15.94;76.94;92919.69;2052328;70;20134;-74
2022/06/02 04:24:44;;;;;;;10.70;8.73;;;;;;;15.53;79.10;92919.91;2028199;70;20157;-74
2022/06/02 04:27:49;;;;;;;11.15;9.98;;;;;;;15.18;80.83;92929.66;2025461;70;20180;-73
2022/06/02 04:30:51;;;;;;;14.38;9.93;;;;;;;15.28;80.61;92923.72;2028357;70;20140;-73
2022/06/02 04:33:33;;;;;;;11.93;9.27;;;;;;;15.64;78.56;92930.41;2028207;70;20255;-74
2022/06/02 04:36:26;;;;;;;11.35;8.95;;;;;;;15.83;76.27;92919.88;2028355;70;20183;-74
2022/06/02 04:39:12;;;;;;;14.13;9.70;;;;;;;15.96;75.81;92925.44;2028379;70;20251;-74
2022/06/02 04:41:56;;;;;;;12.20;9.27;;;;;;;15.96;75.73;92925.44;2028286;70;20184;-74
2022/06/02 04:44:42;;;;;;;13.25;10.13;;;;;;;15.94;76.73;92925.38;2028388;70;20591;-74
2022/06/02 04:47:39;;;;;;;12.23;10.05;;;;;;;15.54;79.23;92929.91;2028075;70;20669;-74
2022/06/02 04:50:33;;;;;;;13.82;10.18;;;;;;;15.91;76.26;92932.31;2025494;70;20691;-74
2022/06/02 04:53:26;;;;;;;12.52;10.27;;;;;;;15.74;77.69;92941.47;2028283;70;20215;-73
2022/06/02 04:56:03;;;;;;;14.25;10.90;;;;;;;15.65;78.48;92951.72;2028269;70;20156;-74
2022/06/02 04:58:48;;;;;;;14.68;11.75;;;;;;;15.59;78.67;92948.59;2025603;70;20161;-74
2022/06/02 05:01:29;;;;;;;14.25;11.23;;;;;;;15.74;77.44;92952.81;2042821;70;20509;-74
2022/06/02 05:04:09;;;;;;;15.95;10.38;;;;;;;15.90;76.32;92945.06;2052107;70;20158;-73
2022/06/02 05:06:47;;;;;;;16.27;11.07;;;;;;;15.95;78.17;92958.06;2052095;70;20138;-74
2022/06/02 05:09:40;;;;;;;16.58;10.35;;;;;;;16.13;75.69;92960.25;2052313;70;20147;-75
2022/06/02 05:12:22;;;;;;;13.65;10.30;;;;;;;16.20;74.34;92957.03;2052161;70;20541;-75
2022/06/02 05:15:12;;;;;;;16.60;10.97;;;;;;;16.12;75.76;92948.13;2052122;70;20149;-74
2022/06/02 05:18:01;;;;;;;12.82;10.93;;;;;;;16.18;76.02;92956.94;2062005;69;20234;-73
2022/06/02 05:20:57;;;;;;;15.30;10.45;;;;;;;16.22;74.56;92953.56;2052182;70;20182;-73
2022/06/02 05:23:41;;;;;;;12.70;10.52;;;;;;;16.22;74.73;92954.28;2052256;70;20588;-75
2022/06/02 05:26:15;;;;;;;13.43;10.38;;;;;;;16.27;75.18;92960.88;2052103;70;20142;-74
2022/06/02 05:28:53;;;;;;;11.77;9.85;;;;;;;16.34;73.99;92964.69;2065081;69;20141;-74
2022/06/02 05:31:57;;;;;;;13.98;10.18;;;;;;;16.38;74.06;92962.03;2052132;70;20204;-73
2022/06/02 05:34:37;;;;;;;13.48;10.23;;;;;;;16.51;73.08;92969.72;2052022;70;20133;-74
2022/06/02 05:37:36;;;;;;;10.82;9.20;;;;;;;16.54;73.01;92971.28;2052286;70;20134;-74
2022/06/02 05:40:08;;;;;;;13.27;9.88;;;;;;;16.65;73.41;92975.28;2046348;70;20134;-74
2022/06/02 05:42:43;;;;;;;13.05;10.05;;;;;;;16.67;73.79;92964.72;2064979;69;20196;-74
2022/06/02 05:45:44;;;;;;;14.43;11.25;;;;;;;16.48;75.30;92956.78;2064948;69;20150;-74
2022/06/02 05:48:34;;;;;;;13.88;10.77;;;;;;;16.63;73.56;92960.97;2064230;69;20225;-73
2022/06/02 05:51:10;;;;;;;15.32;11.23;;;;;;;16.18;76.45;92959.06;2052033;70;20692;-74
2022/06/02 05:53:45;;;;;;;13.63;10.60;;;;;;;16.32;75.05;92956.09;2052092;69;20228;-73
2022/06/02 05:56:32;;;;;;;13.30;9.90;;;;;;;16.75;73.81;92958.69;2052076;70;20143;-73
2022/06/02 05:59:37;;;;;;;10.45;9.02;;;;;;;16.97;73.61;92953.91;2052072;70;20166;-73
2022/06/02 06:02:21;;;;;;;14.95;10.02;;;;;;;16.93;71.74;92955.88;2052852;69;20251;-72
2022/06/02 06:05:03;;;;;;;12.30;9.93;;;;;;;16.75;74.54;92958.69;2052137;70;20174;-75
2022/06/02 06:08:05;;;;;;;12.68;10.45;;;;;;;16.93;73.60;92964.41;2051922;70;20158;-75
2022/06/02 06:10:45;;;;;;;16.67;10.15;;;;;;;16.97;73.29;92976.66;2052038;70;20147;-74
2022/06/02 06:13:47;;;;;;;13.40;9.80;;;;;;;17.19;70.81;92976.84;2052149;70;20646;-72
2022/06/02 06:16:25;;;;;;;14.18;10.65;;;;;;;16.97;72.98;92978.78;2041398;70;20179;-73
2022/06/02 06:19:18;;;;;;;13.23;10.35;;;;;;;16.86;74.18;92977.63;2051973;69;20156;-75
2022/06/02 06:22:01;;;;;;;12.55;10.05;;;;;;;16.88;73.76;92977.72;2038612;70;20153;-74
2022/06/02 06:24:30;;;;;;;13.13;10.93;;;;;;;17.18;73.41;92981.09;2041400;70;20586;-75
2022/06/02 06:27:26;;;;;;;14.77;9.73;;;;;;;17.35;71.32;92981.72;2054724;69;20151;-74
2022/06/02 06:30:29;;;;;;;15.02;10.52;;;;;;;17.36;72.24;92972.53;2041712;70;20136;-75
2022/06/02 06:33:19;;;;;;;12.18;9.73;;;;;;;17.68;70.49;92987.31;2041679;70;20167;-75
2022/06/02 06:36:30;;;;;;;14.55;9.80;;;;;;;17.67;69.85;92982.28;2055113;69;20147;-74
2022/06/02 06:39:10;;;;;;;10.88;9.18;;;;;;;17.89;68.36;92973.91;2055177;69;20209;-76
2022/06/02 06:42:03;;;;;;;13.38;8.77;;;;;;;18.02;69.99;92976.56;2041810;70;20146;-76
2022/06/02 06:44:51;;;;;;;9.70;8.37;;;;;;;18.18;69.43;92982.13;2041831;70;20152;-75
2022/06/02 06:47:19;;;;;;;10.52;8.25;;;;;;;18.37;66.89;92992.09;2041831;70;20144;-75
2022/06/02 06:50:12;;;;;;;13.05;8.68;;;;;;;18.34;67.85;92982.00;2041773;70;20147;-75
2022/06/02 06:52:57;;;;;;;11.13;8.00;;;;;;;18.28;66.95;92979.66;2050667;70;20170;-76
2022/06/02 06:55:52;;;;;;;10.45;7.80;;;;;;;18.37;68.15;92979.94;2052394;70;20204;-73
2022/06/02 06:58:56;;;;;;;9.10;7.43;;;;;;;18.14;68.61;92986.94;2052566;70;20218;-75
2022/06/02 07:01:57;;;;;;;9.20;7.30;;;;;;;18.12;68.68;92984.75;2052457;70;20550;-73
2022/06/02 07:04:36;;;;;;;10.65;7.63;;;;;;;17.66;70.06;92989.38;2052295;70;20208;-75
2022/06/02 07:07:14;;;;;;;9.07;7.75;;;;;;;17.70;70.65;92978.88;2052316;70;20222;-75
2022/06/02 07:09:49;;;;;;;10.57;8.20;;;;;;;17.74;69.89;92981.19;2052492;70;20221;-75
2022/06/02 07:15:15;;;;;;;11.02;7.40;;;;;;;17.73;70.32;92979.66;2052602;70;20154;-74
2022/06/02 07:18:04;;;;;;;7.07;6.35;;;;;;;18.36;69.29;92979.22;2052269;70;20169;-75
2022/06/02 07:20:36;;;;;;;7.28;6.05;;;;;;;18.59;66.65;92982.88;2052496;70;20150;-75
2022/06/02 07:23:26;;;;;;;6.53;5.87;;;;;;;18.32;66.83;92996.16;2052343;70;20145;-74
2022/06/02 07:26:18;;;;;;;7.00;6.13;;;;;;;18.91;66.04;92997.56;2052367;69;20593;-75
2022/06/02 07:29:16;;;;;;;9.50;7.82;;;;;;;18.10;70.17;92998.94;2052355;70;20146;-73
2022/06/02 07:32:19;;;;;;;8.55;7.65;;;;;;;17.51;71.36;93010.84;2054110;70;20138;-75
2022/06/02 07:35:22;;;;;;;8.57;6.60;;;;;;;17.77;71.02;93017.59;2054073;70;20150;-75
2022/06/02 07:38:12;;;;;;;8.35;6.43;;;;;;;17.60;69.88;93026.16;2051198;70;20647;-74
2022/06/02 07:41:05;;;;;;;7.78;6.60;;;;;;;17.85;69.31;93050.63;2032277;70;20170;-75
2022/06/02 07:44:28;;;;;;;8.63;6.38;;;;;;;17.18;72.60;93048.63;2054108;70;20608;-73
2022/06/02 07:47:24;;;;;;;8.60;7.40;;;;;;;17.24;72.50;93052.47;2040789;70;20171;-76
2022/06/02 07:49:50;;;;;;;8.13;6.90;;;;;;;17.27;71.79;93059.72;2038148;70;20156;-76
2022/06/02 07:52:27;;;;;;;8.07;6.47;;;;;;;17.49;71.22;93051.34;2051367;70;20141;-73
2022/06/02 07:55:20;;;;;;;8.90;7.50;;;;;;;17.78;68.94;93041.88;2053991;70;20218;-72
2022/06/02 07:58:02;;;;;;;13.43;9.10;;;;;;;17.52;71.36;93027.28;2054065;70;20172;-74
2022/06/02 08:01:04;;;;;;;9.52;7.80;;;;;;;17.90;69.34;93023.78;2053864;70;20551;-74
2022/06/02 08:03:48;;;;;;;7.63;6.75;;;;;;;17.61;71.27;93008.41;2053753;70;20184;-73
2022/06/02 08:07:04;;;;;;;8.95;6.15;;;;;;;17.99;69.73;93020.59;2052416;70;20313;-77
2022/06/02 08:09:42;;;;;;;6.78;5.85;;;;;;;17.99;69.31;93017.00;2035228;70;20239;-74
2022/06/02 08:12:42;;;;;;;8.73;6.15;;;;;;;18.15;69.69;93014.78;2035146;70;20604;-74
2022/06/02 08:15:29;;;;;;;5.85;5.20;;;;;;;18.35;67.16;93016.94;2034930;70;20288;-74
2022/06/02 08:18:30;;;;;;;5.80;5.20;;;;;;;18.31;68.21;93022.47;2034974;70;20140;-73
2022/06/02 08:21:15;;;;;;;9.18;6.18;;;;;;;18.43;67.76;93014.38;2035077;70;20151;-73
2022/06/02 08:24:08;;;;;;;6.78;5.60;;;;;;;18.62;65.56;93007.94;2035044;70;20207;-73
2022/06/02 08:26:54;;;;;;;;;;;;;;;18.68;65.32;93011.00;2035313;70;20530;-74
2022/06/02 08:29:45;;;;;;;6.80;5.57;;;;;;;18.77;65.05;93024.19;2029801;70;20055;-74
2022/06/02 08:32:20;;;;;;;7.35;5.50;;;;;;;18.84;65.32;93019.44;2034902;70;20180;-74
2022/06/02 08:35:06;;;;;;;6.40;5.38;;;;;;;19.06;66.86;93008.09;2035077;70;20156;-74
2022/06/02 08:37:41;;;;;;;7.10;5.57;;;;;;;19.04;65.44;92993.75;2035042;70;20230;-74
2022/06/02 08:40:29;;;;;;;7.63;6.10;;;;;;;19.28;65.69;92999.53;2035059;70;20239;-74
2022/06/02 08:43:23;;;;;;;10.15;6.70;;;;;;;18.44;67.55;93005.16;2035065;70;20159;-74
2022/06/02 08:46:11;;;;;;;;;;;;;;;18.96;65.82;93011.28;2043577;70;20158;-73
2022/06/02 08:49:10;;;;;;;7.53;6.60;;;;;;;19.06;64.27;93013.78;2045838;70;20130;-72
2022/06/02 08:51:41;;;;;;;7.07;6.13;;;;;;;18.92;64.75;93014.03;2045117;69;20178;-73
2022/06/02 08:54:29;;;;;;;7.03;6.32;;;;;;;18.74;66.86;93011.28;2045143;70;20162;-72
2022/06/02 08:57:11;;;;;;;7.65;6.95;;;;;;;18.77;67.78;92997.81;2045606;70;20559;-73
2022/06/02 08:59:58;;;;;;;6.68;5.75;;;;;;;19.85;66.40;92998.53;2045079;70;20147;-72
2022/06/02 09:02:42;;;;;;;7.88;6.53;;;;;;;19.96;65.45;92997.44;2042193;70;20163;-72
2022/06/02 09:05:18;;;;;;;6.20;5.60;;;;;;;19.93;65.26;92995.94;2045622;70;20240;-73
2022/06/02 09:08:12;;;;;;;6.53;5.18;;;;;;;20.46;64.51;93002.50;2045057;70;20278;-74
2022/06/02 09:11:11;;;;;;;6.03;4.57;;;;;;;21.09;63.25;92998.53;2045591;70;20224;-74
2022/06/02 09:14:18;;;;;;;6.97;5.70;;;;;;;21.05;60.96;92998.44;2045568;70;20612;-75
2022/06/02 09:17:21;;;;;;;5.75;4.82;;;;;;;20.66;62.17;92996.63;2045782;70;20581;-72
2022/06/02 09:20:09;;;;;;;5.68;4.80;;;;;;;20.86;61.77;92997.22;2047135;70;20274;-75
2022/06/02 09:22:46;;;;;;;5.43;4.50;;;;;;;21.04;60.38;93006.28;2045176;70;20556;-73
2022/06/02 09:25:21;;;;;;;4.90;4.40;;;;;;;21.56;58.00;93011.22;2045568;70;20505;-73
2022/06/02 09:27:53;;;;;;;5.22;4.18;;;;;;;21.85;57.86;93009.75;2045498;70;20146;-76
2022/06/02 09:30:44;;;;;;;4.45;4.05;;;;;;;21.36;59.25;93002.84;2045565;70;20178;-76
2022/06/02 09:33:43;;;;;;;4.10;3.70;;;;;;;21.86;56.20;93005.50;2045496;70;20146;-75
2022/06/02 09:36:57;;;;;;;3.90;3.60;;;;;;;21.61;56.48;93007.03;2045536;70;20155;-75
2022/06/02 09:39:59;;;;;;;3.13;2.92;;;;;;;22.30;55.85;93002.22;2042492;70;20143;-75
2022/06/02 09:43:13;;;;;;;3.65;3.35;;;;;;;22.09;55.19;92992.41;2045573;70;20151;-75
2022/06/02 09:45:52;;;;;;;4.60;3.67;;;;;;;21.74;54.74;92996.59;2033395;70;20149;-76
2022/06/02 09:48:27;;;;;;;3.92;3.53;;;;;;;21.96;55.23;92988.53;2045359;70;20571;-76
2022/06/02 09:51:17;;;;;;;3.42;3.13;;;;;;;21.97;53.42;92981.38;2045604;70;20159;-76
2022/06/02 09:54:05;;;;;;;3.80;3.10;;;;;;;22.47;53.87;92986.09;2045601;70;20186;-74
2022/06/02 09:56:40;;;;;;;3.17;2.88;;;;;;;22.52;53.48;92976.16;2045549;70;20265;-75
2022/06/02 09:59:36;;;;;;;8.07;3.00;;;;;;;23.02;52.15;92976.44;2044929;70;20155;-75
2022/06/02 10:02:18;;;;;;;4.03;2.60;;;;;;;23.74;51.32;92975.56;2044100;70;20236;-75
2022/06/02 10:04:59;;;;;;;2.90;2.70;;;;;;;24.43;49.83;92975.91;2045342;70;20150;-75
2022/06/02 10:07:30;;;;;;;2.95;2.65;;;;;;;24.05;49.61;92970.28;2051603;70;20158;-74
2022/06/02 10:10:13;;;;;;;3.23;2.93;;;;;;;23.88;51.12;92971.47;2052050;70;20153;-74
2022/06/02 10:13:00;;;;;;;3.53;3.17;;;;;;;24.11;51.42;92975.41;2052032;70;20153;-74
2022/06/02 10:15:40;;;;;;;3.67;3.08;;;;;;;24.18;49.55;92971.91;2052018;70;20154;-74
2022/06/02 10:18:30;;;;;;;5.07;2.90;;;;;;;24.57;49.28;92970.31;2051909;70;20158;-74
2022/06/02 10:21:08;;;;;;;3.15;2.85;;;;;;;24.07;48.38;92981.81;2052118;70;20133;-74
2022/06/02 10:23:56;;;;;;;2.90;2.70;;;;;;;24.21;49.64;92982.03;2052103;70;20207;-75
2022/06/02 10:26:33;;;;;;;3.53;2.80;;;;;;;23.88;49.42;92975.06;2051988;70;20151;-75
2022/06/02 10:29:05;;;;;;;2.83;2.63;;;;;;;23.47;50.74;92982.28;2064776;69;20158;-74
2022/06/02 10:31:55;;;;;;;4.38;2.90;;;;;;;23.87;50.35;92982.25;2051991;70;20245;-74
2022/06/02 10:34:33;;;;;;;3.95;3.42;;;;;;;23.70;50.41;92978.38;2051690;70;20236;-76
2022/06/02 10:37:19;;;;;;;3.20;2.90;;;;;;;23.67;50.45;92973.28;2051803;70;20146;-74
2022/06/02 10:40:22;;;;;;;4.15;3.78;;;;;;;24.44;48.71;92971.59;2051884;70;20153;-75
2022/06/02 10:43:06;;;;;;;3.22;2.92;;;;;;;23.60;49.52;92963.81;2064728;69;20166;-76
2022/06/02 10:46:16;;;;;;;2.83;2.60;;;;;;;23.94;49.21;92960.78;2051029;70;20147;-74
2022/06/02 10:49:09;;;;;;;3.55;3.25;;;;;;;24.76;47.47;92956.16;2037787;70;20167;-75
2022/06/02 10:52:28;;;;;;;3.40;3.10;;;;;;;25.04;46.89;92956.47;2051030;70;20149;-75
2022/06/02 10:55:28;;;;;;;3.95;3.05;;;;;;;24.84;46.62;92947.63;2040723;70;20620;-75
2022/06/02 10:58:21;;;;;;;2.80;2.60;;;;;;;24.90;46.16;92941.19;2044286;70;20179;-75
2022/06/02 11:01:05;;;;;;;4.10;2.63;;;;;;;24.28;47.97;92942.56;2044284;70;20154;-76
2022/06/02 11:03:30;;;;;;;3.60;3.20;;;;;;;26.40;43.71;92950.44;2041496;70;20143;-75
2022/06/02 11:06:06;;;;;;;3.45;2.90;;;;;;;30.17;38.73;92948.53;2038805;70;20158;-75
2022/06/02 11:08:57;;;;;;;2.90;2.55;;;;;;;31.64;33.98;92953.41;2041535;70;20222;-74
2022/06/02 11:11:40;;;;;;;3.22;2.83;;;;;;;28.93;38.29;92944.91;2043161;70;20158;-77
2022/06/02 11:14:57;;;;;;;2.80;2.60;;;;;;;27.15;40.75;92955.13;2043916;70;20163;-76
2022/06/02 11:17:32;;;;;;;2.90;2.58;;;;;;;27.27;40.73;92938.53;2042527;70;20143;-75
2022/06/02 11:20:24;;;;;;;3.63;2.65;;;;;;;29.47;37.92;92943.22;2044997;70;20174;-76
2022/06/02 11:23:14;;;;;;;2.58;2.25;;;;;;;33.20;32.57;92945.63;2037815;70;20214;-75
2022/06/02 11:26:17;;;;;;;3.53;2.75;;;;;;;30.81;34.51;92929.75;2048470;70;20679;-76
2022/06/02 11:29:19;;;;;;;3.15;2.17;;;;;;;30.56;34.68;92940.16;2052172;70;20192;-75
2022/06/02 11:32:04;;;;;;;2.30;2.10;;;;;;;31.00;33.83;92941.88;2048983;70;20200;-75
2022/06/02 11:34:57;;;;;;;3.35;2.17;;;;;;;30.10;36.35;92927.50;2052229;70;20168;-77
2022/06/02 11:38:01;;;;;;;3.08;2.30;;;;;;;27.29;39.96;92929.16;2052107;70;20142;-74
2022/06/02 11:40:29;;;;;;;2.85;2.20;;;;;;;29.76;37.13;92922.72;2052269;70;20150;-74
2022/06/02 11:42:58;;;;;;;2.25;2.08;;;;;;;31.41;34.76;92929.72;2051979;70;20234;-75
2022/06/02 11:45:37;;;;;;;3.47;2.40;;;;;;;29.91;37.18;92921.16;2051761;70;20154;-74
2022/06/02 11:48:27;;;;;;;2.30;2.10;;;;;;;27.54;40.61;92927.75;2051623;70;20202;-75
2022/06/02 11:51:39;;;;;;;2.72;2.53;;;;;;;26.79;42.95;92919.59;2052113;70;20588;-76
2022/06/02 11:54:29;;;;;;;3.05;2.50;;;;;;;25.19;45.16;92922.81;2047733;70;20135;-76
2022/06/02 11:57:11;;;;;;;4.15;2.50;;;;;;;25.76;44.84;92931.97;2052155;70;20635;-75
2022/06/02 12:00:06;;;;;;;2.58;2.38;;;;;;;24.73;47.17;92940.28;2052101;70;20229;-74
2022/06/02 12:02:57;;;;;;;2.75;2.50;;;;;;;23.79;48.96;92954.09;2052115;70;20251;-75
2022/06/02 12:05:55;;;;;;;2.70;2.50;;;;;;;23.84;50.05;92954.88;2052070;70;20150;-74
2022/06/02 12:08:42;;;;;;;3.08;2.72;;;;;;;23.27;50.74;92968.28;2052215;70;20182;-74
2022/06/02 12:11:45;;;;;;;3.25;2.90;;;;;;;24.47;48.73;92969.47;2051639;70;20249;-74
2022/06/02 12:14:25;;;;;;;2.95;2.70;;;;;;;24.93;47.43;92966.44;2052123;70;20526;-74
2022/06/02 12:17:16;;;;;;;3.20;2.90;;;;;;;25.59;46.54;92964.97;2052045;70;20130;-75
2022/06/02 12:20:15;;;;;;;3.03;2.80;;;;;;;25.58;46.18;92964.25;2052003;70;20207;-74
2022/06/02 12:22:59;;;;;;;3.65;2.70;;;;;;;25.12;47.02;92941.47;2052146;70;20626;-73
2022/06/02 12:25:34;;;;;;;3.85;2.80;;;;;;;26.16;45.71;92942.38;2052055;70;20226;-74
2022/06/02 12:28:05;;;;;;;3.00;2.80;;;;;;;25.04;45.42;92933.44;2052048;70;20150;-72
2022/06/02 12:30:55;;;;;;;2.92;2.60;;;;;;;26.19;43.50;92931.53;2052163;70;20145;-73
2022/06/02 12:33:29;;;;;;;3.00;2.80;;;;;;;26.60;43.27;92932.50;2052038;70;20157;-74
2022/06/02 12:36:04;;;;;;;3.28;2.78;;;;;;;26.92;43.40;92922.53;2048819;70;20130;-75
2022/06/02 12:38:58;;;;;;;3.63;2.75;;;;;;;26.13;44.50;92922.88;2052025;70;20134;-73
2022/06/02 12:41:45;;;;;;;3.00;2.80;;;;;;;25.62;44.80;92923.19;2048849;70;20148;-73
2022/06/02 12:44:41;;;;;;;3.05;2.53;;;;;;;26.28;44.76;92925.09;2052093;70;20145;-72
2022/06/02 12:47:25;;;;;;;3.30;3.00;;;;;;;26.10;44.18;92925.00;2045700;70;20145;-73
2022/06/02 12:50:29;;;;;;;3.03;2.80;;;;;;;25.99;45.58;92924.22;2051882;70;20158;-73
2022/06/02 12:53:24;;;;;;;3.22;2.92;;;;;;;26.42;44.72;92924.47;2052128;70;20158;-74
2022/06/02 12:56:14;;;;;;;2.72;2.53;;;;;;;25.76;45.30;92914.69;2051734;70;20146;-74
2022/06/02 12:59:07;;;;;;;3.85;2.80;;;;;;;26.26;44.95;92918.63;2051655;70;20182;-74
2022/06/02 13:01:54;;;;;;;3.13;2.60;;;;;;;25.53;46.04;92908.00;2048381;70;20642;-73
2022/06/02 13:04:25;;;;;;;2.78;2.50;;;;;;;25.17;47.13;92908.38;2048438;70;20203;-73
2022/06/02 13:06:51;;;;;;;3.15;2.30;;;;;;;25.86;46.52;92905.38;2042482;70;20155;-73